4XCWC LLHZ-LLHZ

Flight info

Callsign 4XCWC
Flight time 0h 5m
Altitude 800
Route CIRCUITS
Aircraft C172/L-V/N

Departure

Time 2026-04-27 17:13
Airport Herzliya Airport (LLHZ)

Arrival

Time 2026-04-27 17:18
Airport Herzliya Airport (LLHZ)
Time Latitude Longitude Altitude Speed Heading
2026-04-27 16:55 32.17964 34.83494 107 ft 0 kts 20°
2026-04-27 17:09 32.17973 34.83525 107 ft 9 kts 109°
2026-04-27 17:09 32.17940 34.83637 111 ft 19 kts 109°
2026-04-27 17:09 32.17899 34.83777 117 ft 12 kts 106°
2026-04-27 17:09 32.17882 34.83836 119 ft 0 kts 109°
2026-04-27 17:10 32.17882 34.83837 119 ft 1 kts 109°
2026-04-27 17:10 32.17880 34.83850 121 ft 0 kts 84°
2026-04-27 17:11 32.17882 34.83856 121 ft 5 kts 52°
2026-04-27 17:12 32.17925 34.83812 122 ft 23 kts 284°
2026-04-27 17:12 32.18045 34.83448 153 ft 63 kts 288°
2026-04-27 17:12 32.18207 34.82932 330 ft 65 kts 298°
2026-04-27 17:13 32.18668 34.82887 488 ft 72 kts
2026-04-27 17:13 32.19093 34.83052 722 ft 72 kts 43°
2026-04-27 17:13 32.19062 34.83692 760 ft 96 kts 107°
2026-04-27 17:13 32.18877 34.84494 843 ft 106 kts 103°
2026-04-27 17:14 32.18699 34.85290 819 ft 98 kts 114°
2026-04-27 17:14 32.18205 34.85211 597 ft 97 kts 223°
2026-04-27 17:14 32.17652 34.85007 553 ft 76 kts 239°
2026-04-27 17:14 32.17738 34.84450 328 ft 68 kts 288°
2026-04-27 17:15 32.17891 34.83941 176 ft 62 kts 288°
2026-04-27 17:15 32.18019 34.83496 111 ft 56 kts 284°
2026-04-27 17:15 32.18156 34.83006 249 ft 67 kts 286°
2026-04-27 17:15 32.18560 34.82859 394 ft 76 kts 16°
2026-04-27 17:16 32.19037 34.83047 696 ft 67 kts 24°
2026-04-27 17:16 32.19269 34.83553 691 ft 95 kts 119°
2026-04-27 17:16 32.18922 34.84304 583 ft 102 kts 122°
2026-04-27 17:16 32.18603 34.84912 742 ft 79 kts 122°
2026-04-27 17:17 32.18177 34.85326 689 ft 84 kts 176°
2026-04-27 17:17 32.17651 34.85082 551 ft 87 kts 254°
2026-04-27 17:17 32.17672 34.84479 367 ft 67 kts 284°
2026-04-27 17:18 32.17970 34.83589 211 ft 58 kts 275°
2026-04-27 17:18 32.18061 34.83117 431 ft 47 kts 290°
2026-04-27 17:18 32.18300 34.82946 565 ft 50 kts
2026-04-27 17:18 32.18683 34.82994 674 ft 64 kts
2026-04-27 17:19 32.19132 34.83050 856 ft 59 kts
2026-04-27 17:19 32.19559 34.83123 926 ft 73 kts
2026-04-27 17:19 32.19996 34.83328 1137 ft 74 kts 60°
2026-04-27 17:19 32.19893 34.83982 1143 ft 87 kts 121°
2026-04-27 17:20 32.19582 34.84579 1189 ft 84 kts 122°
2026-04-27 17:20 32.19262 34.85153 1188 ft 86 kts 130°
2026-04-27 17:20 32.18743 34.85535 1127 ft 91 kts 168°
2026-04-27 17:20 32.18161 34.85596 1116 ft 74 kts 185°
2026-04-27 17:21 32.17945 34.85976 1008 ft 79 kts 36°
2026-04-27 17:21 32.18025 34.85656 868 ft 72 kts 208°
2026-04-27 17:21 32.17692 34.85269 698 ft 64 kts 242°
2026-04-27 17:21 32.17654 34.84765 477 ft 63 kts 273°
2026-04-27 17:22 32.17789 34.84270 265 ft 63 kts 289°
2026-04-27 17:22 32.17926 34.83809 134 ft 54 kts 290°
2026-04-27 17:22 32.18045 34.83420 160 ft 50 kts 294°
2026-04-27 17:22 32.18154 34.82922 241 ft 72 kts 288°
2026-04-27 17:23 32.18568 34.82773 435 ft 80 kts 17°
2026-04-27 17:23 32.19019 34.83170 621 ft 87 kts 71°
2026-04-27 17:23 32.18970 34.83933 728 ft 98 kts 99°
2026-04-27 17:23 32.18871 34.84742 888 ft 101 kts 97°
2026-04-27 17:24 32.18503 34.85352 834 ft 87 kts 169°
2026-04-27 17:24 32.17990 34.85252 761 ft 71 kts 211°
2026-04-27 17:24 32.17721 34.84758 521 ft 80 kts 256°
2026-04-27 17:24 32.17838 34.84116 255 ft 79 kts 289°
2026-04-27 17:25 32.18012 34.83519 172 ft 73 kts 288°
2026-04-27 17:25 32.18209 34.82919 325 ft 84 kts 307°
2026-04-27 17:25 32.18719 34.82919 436 ft 75 kts 26°
2026-04-27 17:25 32.19010 34.83410 535 ft 86 kts 94°
2026-04-27 17:26 32.18823 34.84114 596 ft 95 kts 108°
2026-04-27 17:26 32.18663 34.84858 775 ft 93 kts 106°
2026-04-27 17:26 32.18215 34.85298 737 ft 94 kts 184°
2026-04-27 17:26 32.17691 34.84956 639 ft 84 kts 248°
2026-04-27 17:27 32.17766 34.84346 331 ft 72 kts 288°
2026-04-27 17:27 32.17927 34.83808 152 ft 64 kts 289°
2026-04-27 17:27 32.18053 34.83372 126 ft 54 kts 286°
2026-04-27 17:27 32.18180 34.82918 266 ft 64 kts 291°
2026-04-27 17:28 32.18587 34.82865 413 ft 75 kts 19°
2026-04-27 17:28 32.19060 34.83125 642 ft 78 kts 43°
2026-04-27 17:28 32.18765 34.84506 736 ft 91 kts 113°
2026-04-27 17:29 32.18523 34.85128 792 ft 75 kts 127°
2026-04-27 17:29 32.18048 34.85219 661 ft 79 kts 204°
2026-04-27 17:29 32.17729 34.84823 502 ft 60 kts 255°
2026-04-27 17:29 32.17763 34.84361 296 ft 55 kts 289°
2026-04-27 17:30 32.17889 34.83937 170 ft 54 kts 287°
2026-04-27 17:30 32.18059 34.83346 101 ft 13 kts 263°
2026-04-27 17:30 32.18040 34.83330 102 ft 2 kts 174°
2026-04-27 17:31 32.18030 34.83338 103 ft 4 kts 122°
2026-04-27 17:31 32.18005 34.83423 105 ft 14 kts 106°
2026-04-27 17:31 32.17979 34.83507 107 ft 0 kts 110°
2026-04-27 17:31 32.17980 34.83503 107 ft 2 kts 85°
2026-04-27 17:32 32.17972 34.83496 107 ft 2 kts 356°
2026-04-27 17:32 32.17966 34.83495 107 ft 0 kts 23°